• Join FlightAware (Why Join?)
  • Login
  • US Flag 
03:20AM EST


 

Airport Tracker/Info


-or-


 

Live Flight TrackerFlight Track Log ✈ FIN666 ✈ 06-Apr-2014 ✈ EKCH / CPH - EFHK / HEL

Flight Track Log - Related Links

Times and Time Zones

All times are in EDT time to prevent confusion due to time zone crossing. See the FIN666 flight status page for this flight to view local times or setup timezone preferences in your user account.

Time Position Orientation Groundspeed Altitude Reporting Facility
EDT Latitude Longitude Course Direction KTS MPH feet Rate Location/Type
07:31AM 55.8329 13.1000 49° Northeast  Level Estimated
07:32AM 55.9042 13.2491 50° Northeast  Level Estimated
07:33AM 55.9753 13.3988 50° Northeast  Level Estimated
07:34AM 56.0462 13.5490 50° Northeast  Level Estimated
07:35AM 56.1189 13.7040 50° Northeast  Level Estimated
07:36AM 56.1915 13.8596 50° Northeast  Level Estimated
07:37AM 56.2638 14.0158 50° Northeast  Level Estimated
07:38AM 56.3360 14.1726 50° Northeast  Level Estimated
07:39AM 56.4079 14.3299 50° Northeast  Level Estimated
07:40AM 56.4797 14.4879 51° Northeast  Level Estimated
07:41AM 56.5512 14.6465 51° Northeast  Level Estimated
07:42AM 56.6226 14.8056 51° Northeast  Level Estimated
07:43AM 56.6937 14.9654 51° Northeast  Level Estimated
07:44AM 56.7646 15.1258 51° Northeast  Level Estimated
07:45AM 56.8354 15.2867 51° Northeast  Level Estimated
07:46AM 56.9059 15.4483 51° Northeast  Level Estimated
07:47AM 56.9762 15.6105 51° Northeast  Level Estimated
07:48AM 57.0463 15.7733 52° Northeast  Level Estimated
07:49AM 57.1162 15.9368 52° Northeast  Level Estimated
07:50AM 57.1859 16.1008 52° Northeast  Level Estimated
07:51AM 57.2553 16.2654 52° Northeast  Level Estimated
07:52AM 57.3246 16.4307 52° Northeast  Level Estimated
07:53AM 57.3936 16.5966 52° Northeast  Level Estimated
07:54AM 57.4624 16.7632 52° Northeast  Level Estimated
07:55AM 57.5310 16.9303 53° Northeast  Level Estimated
07:56AM 57.5994 17.0981 53° Northeast  Level Estimated
07:57AM 57.6675 17.2665 53° Northeast  Level Estimated
07:58AM 57.7354 17.4356 53° Northeast  Level Estimated
07:59AM 57.8031 17.6052 53° Northeast  Level Estimated
08:00AM 57.8706 17.7756 53° Northeast  Level Estimated
08:01AM 57.9378 17.9465 53° Northeast  Level Estimated
08:02AM 58.0048 18.1181 54° Northeast  Level Estimated
08:03AM 58.0716 18.2904 54° Northeast  Level Estimated
08:04AM 58.1382 18.4633 54° Northeast  Level Estimated
08:05AM 58.2045 18.6368 54° Northeast  Level Estimated
08:06AM 58.2705 18.8110 54° Northeast  Level Estimated
08:07AM 58.3364 18.9858 54° Northeast  Level Estimated
08:08AM 58.4020 19.1613 54° Northeast  Level Estimated
08:09AM 58.4673 19.3374 55° Northeast  Level Estimated
08:10AM 58.5324 19.5142 55° Northeast  Level Estimated
08:11AM 58.5973 19.6917 55° Northeast  Level Estimated
08:12AM 58.6619 19.8698 55° Northeast  Level Estimated
08:13AM 58.7263 20.0485 55° Northeast  Level Estimated
08:14AM 58.7904 20.2280 55° Northeast  Level Estimated
08:15AM 58.8543 20.4080 56° Northeast  Level Estimated
08:16AM 58.9179 20.5888 56° Northeast  Level Estimated
08:17AM 58.9813 20.7702 56° Northeast  Level Estimated
08:18AM 59.0444 20.9523 56° Northeast  Level Estimated
08:19AM 59.1073 21.1351 56° Northeast  Level Estimated
08:20AM 59.1699 21.3185 56° Northeast  Level Estimated
08:21AM 59.2322 21.5026 56° Northeast  Level Estimated
08:22AM 59.2943 21.6873 57° Northeast  Level Estimated
08:23AM 59.3561 21.8728 57° Northeast  Level Estimated
08:24AM 59.4177 22.0589 57° Northeast  Level Estimated
08:25AM 59.4790 22.2457 57° Northeast  Level Estimated
08:26AM 59.5400 22.4332 57° Northeast  Level Estimated
08:27AM 59.6008 22.6213 57° Northeast  Level Estimated
08:28AM 59.6613 22.8102 58° Northeast  Level Estimated
08:29AM 59.7215 22.9997 58° Northeast  Level Estimated
08:30AM 59.7814 23.1899 58° Northeast  Level Estimated
08:31AM 59.8411 23.3807 58° Northeast  Level Estimated
08:32AM 59.9004 23.5723 58° Northeast  Level Estimated
08:33AM 59.9595 23.7645 58° Northeast  Level Estimated
08:34AM 60.0184 23.9575 59° Northeast  Level Estimated
08:35AM 60.0769 24.1511 59° Northeast  Level Estimated
08:36AM 60.1352 24.3454 59° Northeast  Level Estimated
08:37AM 60.1931 24.5404 59° Northeast  Level Estimated
08:38AM 60.2508 24.7361 59° Northeast  Level Estimated
08:39AM 60.3082 24.9324 59° Northeast  Level Estimated
08:40AM 60.3172 24.9633 60° Northeast  Level Estimated
08:41AM 60.3172 24.9633 North  Level Estimated
08:42AM 60.3172 24.9633 North  Level Estimated
08:43AM 60.3172 24.9633 North  Level Estimated
08:44AM 60.3172 24.9633 North  Level Estimated
08:45AM 60.3172 24.9633 North  Level Estimated
08:46AM 60.3172 24.9633 North  Level Estimated
08:47AM 60.3172 24.9633 North  Level Estimated
08:48AM 60.3172 24.9633 North  Level Estimated
08:49AM 60.3172 24.9633 North  Level Estimated
08:50AM 60.3172 24.9633 North  Level Estimated
08:51AM 60.3172 24.9633 North  Level Estimated
08:52AM 60.3172 24.9633 North  Level Estimated
08:53AM 60.3172 24.9633 North  Level Estimated